createdAt,value
2023-05-14T00:00:36.024Z,426.9231
2023-05-14T00:01:37.762Z,427.2308
2023-05-14T00:02:39.547Z,425.4615
2023-05-14T00:03:41.451Z,424.4615
2023-05-14T00:04:42.980Z,423.3077
2023-05-14T00:05:44.704Z,424.7692
2023-05-14T00:06:46.459Z,425.1538
2023-05-14T00:07:48.157Z,425.2308
2023-05-14T00:08:49.906Z,427.3846
2023-05-14T00:09:51.659Z,429.3077
2023-05-14T00:10:53.385Z,430.3077
2023-05-14T00:11:55.097Z,428.6154
2023-05-14T00:12:56.835Z,428.7692
2023-05-14T00:13:58.567Z,428.2308
2023-05-14T00:15:00.321Z,429.2308
2023-05-14T00:16:02.064Z,428.3077
2023-05-14T00:17:03.763Z,426.8462
2023-05-14T00:18:05.532Z,428.2308
2023-05-14T00:19:07.378Z,428.3846
2023-05-14T00:20:09.077Z,428.3077
2023-05-14T00:21:10.807Z,427.9231
2023-05-14T00:22:12.519Z,425.6154
2023-05-14T00:23:14.253Z,424.8462
2023-05-14T00:24:15.989Z,423.4615
2023-05-14T00:25:17.715Z,421.9231
2023-05-14T00:26:19.456Z,422.8462
2023-05-14T00:27:21.190Z,424.3846
2023-05-14T00:28:22.933Z,425.8462
2023-05-14T00:29:24.673Z,427.3077
2023-05-14T00:30:26.407Z,428.0769
2023-05-14T00:31:28.135Z,427.6923
2023-05-14T00:32:29.911Z,425.3077
2023-05-14T00:33:31.605Z,423.5385
2023-05-14T00:34:33.333Z,424.4615
2023-05-14T00:35:35.077Z,425.4615
2023-05-14T00:36:36.787Z,426.7692
2023-05-14T00:37:38.512Z,424.0769
2023-05-14T00:38:40.251Z,424.4615
2023-05-14T00:39:42.004Z,425.8462
2023-05-14T00:40:43.738Z,423.9231
2023-05-14T00:41:45.464Z,422.3846
2023-05-14T00:42:47.190Z,425.0000
2023-05-14T00:43:48.913Z,427.3077
2023-05-14T00:44:50.665Z,427.2308
2023-05-14T00:45:52.402Z,427.3846
2023-05-14T00:46:54.198Z,425.9231
2023-05-14T00:47:55.849Z,424.3077
2023-05-14T00:48:57.570Z,423.3077
2023-05-14T00:49:59.318Z,425.5385
2023-05-14T00:51:01.058Z,425.3077
2023-05-14T00:52:02.784Z,427.3077
2023-05-14T00:53:04.497Z,429.3077
2023-05-14T00:54:06.244Z,430.0769
2023-05-14T00:55:07.985Z,429.0000
2023-05-14T00:56:09.743Z,426.9231
2023-05-14T00:57:11.466Z,426.0000
2023-05-14T00:58:13.169Z,427.3077
2023-05-14T00:59:14.891Z,427.7692
2023-05-14T01:00:16.691Z,430.1538
2023-05-14T01:01:18.414Z,430.0769
2023-05-14T01:02:20.142Z,430.2308
2023-05-14T01:03:21.872Z,428.9231
2023-05-14T01:04:23.547Z,427.2308
2023-05-14T01:05:25.276Z,427.0769
2023-05-14T01:06:27.039Z,427.6923
2023-05-14T01:07:28.765Z,426.9231
2023-05-14T01:08:30.491Z,427.4615
2023-05-14T01:09:32.207Z,427.9231
2023-05-14T01:10:33.943Z,426.5385
2023-05-14T01:11:35.685Z,426.4615
2023-05-14T01:12:37.427Z,427.0769
2023-05-14T01:13:39.159Z,427.6923
2023-05-14T01:14:40.873Z,428.8462
2023-05-14T01:15:42.602Z,427.2308
2023-05-14T01:16:44.361Z,426.9231
2023-05-14T01:17:46.118Z,426.4615
2023-05-14T01:18:47.878Z,428.0000
2023-05-14T01:19:49.531Z,428.6154
2023-05-14T01:20:51.267Z,428.6923
2023-05-14T01:21:53.012Z,428.1538
2023-05-14T01:22:54.772Z,427.5385
2023-05-14T01:23:56.488Z,426.0000
2023-05-14T01:24:58.227Z,422.6154
2023-05-14T01:25:59.937Z,423.6923
2023-05-14T01:27:01.684Z,427.1538
2023-05-14T01:28:03.397Z,426.8462
2023-05-14T01:29:05.164Z,425.9231
2023-05-14T01:30:06.886Z,426.9231
2023-05-14T01:31:08.605Z,427.7692
2023-05-14T01:32:10.433Z,427.4615
2023-05-14T01:33:12.070Z,427.4615
2023-05-14T01:34:13.820Z,427.0769
2023-05-14T01:35:15.563Z,427.2308
2023-05-14T01:36:17.265Z,426.6923
2023-05-14T01:37:19.008Z,427.2308
2023-05-14T01:38:20.755Z,428.4615
2023-05-14T01:39:22.465Z,430.2308
2023-05-14T01:40:24.395Z,429.7692
2023-05-14T01:41:25.926Z,430.3846
2023-05-14T01:42:27.680Z,428.4615
2023-05-14T01:43:29.510Z,428.9231
2023-05-14T01:44:31.136Z,428.6154
2023-05-14T01:45:32.845Z,427.2308
2023-05-14T01:46:34.579Z,428.5385
2023-05-14T01:47:36.364Z,428.3077
2023-05-14T01:48:38.059Z,428.1538
2023-05-14T01:49:39.786Z,426.4615
2023-05-14T01:50:41.502Z,428.3846
2023-05-14T01:51:43.242Z,429.0000
2023-05-14T01:52:45.004Z,426.7692
2023-05-14T01:53:46.692Z,427.7692
2023-05-14T01:54:48.435Z,429.7692
2023-05-14T01:55:50.160Z,430.1538
2023-05-14T01:56:51.907Z,430.5385
2023-05-14T01:57:53.643Z,429.6154
2023-05-14T01:58:55.369Z,429.1538
2023-05-14T01:59:57.080Z,428.9231
2023-05-14T02:00:58.888Z,430.2308
2023-05-14T02:02:00.742Z,430.0769
2023-05-14T02:03:02.359Z,428.3077
2023-05-14T02:04:04.104Z,428.3846
2023-05-14T02:05:06.913Z,427.5385
2023-05-14T02:07:27.112Z,410.1667
2023-05-14T02:08:28.754Z,415.0769
2023-05-14T02:09:30.486Z,420.5385
2023-05-14T02:12:26.325Z,412.5000
2023-05-14T02:13:28.043Z,415.0769
2023-05-14T02:14:29.773Z,418.6154
2023-05-14T02:15:31.531Z,421.9231
2023-05-14T02:16:33.257Z,425.9231
2023-05-14T02:17:35.037Z,425.0769
2023-05-14T02:18:36.759Z,425.2308
2023-05-14T02:19:38.480Z,425.0769
2023-05-14T02:20:40.188Z,423.3846
2023-05-14T02:21:41.939Z,424.6154
2023-05-14T02:22:43.655Z,422.5385
2023-05-14T02:23:45.387Z,423.3846
2023-05-14T02:24:47.132Z,425.0769
2023-05-14T02:25:48.855Z,423.4615
2023-05-14T02:26:50.621Z,423.3077
2023-05-14T02:27:52.355Z,423.6154
2023-05-14T02:28:54.072Z,424.3077
2023-05-14T02:29:55.805Z,425.0000
2023-05-14T02:34:11.282Z,409.7500
2023-05-14T02:35:13.001Z,413.2308
2023-05-14T02:36:14.761Z,416.6154
2023-05-14T02:37:16.468Z,419.3077
2023-05-14T02:38:18.259Z,421.8462
2023-05-14T02:39:19.947Z,424.8462
2023-05-14T02:40:21.871Z,425.6154
2023-05-14T02:41:23.418Z,426.3846
2023-05-14T02:42:25.173Z,425.9231
2023-05-14T02:43:26.898Z,425.8462
2023-05-14T02:44:28.651Z,425.2308
2023-05-14T02:45:30.393Z,426.3077
2023-05-14T02:46:32.314Z,424.7692
2023-05-14T02:47:36.030Z,424.2308
2023-05-14T02:48:35.571Z,424.7692
2023-05-14T02:49:37.328Z,425.6923
2023-05-14T02:50:39.064Z,425.8462
2023-05-14T02:51:40.774Z,423.6154
2023-05-14T02:52:42.503Z,421.2308
2023-05-14T02:53:44.239Z,421.2308
2023-05-14T02:54:46.004Z,420.0000
2023-05-14T02:55:47.758Z,421.0000
2023-05-14T02:56:49.443Z,423.0769
2023-05-14T02:57:51.185Z,422.4615
2023-05-14T02:58:52.922Z,422.5385
2023-05-14T02:59:54.670Z,424.1538
2023-05-14T03:00:56.486Z,425.4615
2023-05-14T03:01:58.199Z,426.1538
2023-05-14T03:02:59.876Z,428.4615
2023-05-14T03:04:01.592Z,426.7692
2023-05-14T03:05:03.323Z,427.5385
2023-05-14T03:06:05.085Z,425.5385
2023-05-14T03:07:06.818Z,422.6923
2023-05-14T03:08:08.529Z,423.9231
2023-05-14T03:09:10.269Z,426.0769
2023-05-14T03:10:11.993Z,423.7692
2023-05-14T03:11:13.763Z,422.0000
2023-05-14T03:12:15.486Z,423.4615
2023-05-14T03:13:17.221Z,426.6923
2023-05-14T03:14:18.972Z,426.6154
2023-05-14T03:15:20.672Z,426.8462
2023-05-14T03:16:22.442Z,427.8462
2023-05-14T03:17:24.217Z,428.2308
2023-05-14T03:18:25.969Z,427.9231
2023-05-14T03:19:27.619Z,426.8462
2023-05-14T03:20:29.331Z,424.6154
2023-05-14T03:21:31.072Z,426.9231
2023-05-14T03:22:32.829Z,426.3077
2023-05-14T03:23:34.585Z,427.6154
2023-05-14T03:24:36.301Z,428.0000
2023-05-14T03:25:38.027Z,426.9231
2023-05-14T03:26:39.756Z,424.7692
2023-05-14T03:27:41.514Z,424.1538
2023-05-14T03:28:43.259Z,423.8462
2023-05-14T03:29:44.958Z,423.7692
2023-05-14T03:30:46.764Z,423.6154
2023-05-14T03:31:48.445Z,423.2308
2023-05-14T03:32:50.235Z,424.3077
2023-05-14T03:33:51.934Z,424.3077
2023-05-14T03:34:53.645Z,422.3077
2023-05-14T03:35:55.385Z,422.0000
2023-05-14T03:36:57.133Z,422.0000
2023-05-14T03:37:58.877Z,422.4615
2023-05-14T03:39:00.620Z,423.0769
2023-05-14T03:40:02.358Z,423.1538
2023-05-14T03:41:04.060Z,423.3846
2023-05-14T03:42:05.796Z,423.5385
2023-05-14T03:43:07.543Z,424.3077
2023-05-14T03:44:09.294Z,424.7692
2023-05-14T03:45:11.037Z,426.6154
2023-05-14T03:46:12.740Z,425.5385
2023-05-14T03:47:14.472Z,424.9231
2023-05-14T03:48:16.298Z,423.2308
2023-05-14T03:49:17.983Z,423.4615
2023-05-14T03:50:19.697Z,424.4615
2023-05-14T03:51:21.434Z,425.9231
2023-05-14T03:52:23.151Z,426.0000
2023-05-14T03:53:24.885Z,424.1538
2023-05-14T03:54:26.638Z,427.9231
2023-05-14T03:55:28.375Z,428.1538
2023-05-14T03:56:30.095Z,425.2308
2023-05-14T03:57:31.847Z,423.0769
2023-05-14T03:58:33.586Z,425.5385
2023-05-14T03:59:35.315Z,427.1538
2023-05-14T04:00:37.032Z,428.7692
2023-05-14T04:01:38.791Z,429.6923
2023-05-14T04:02:40.561Z,427.3846
2023-05-14T04:03:42.368Z,425.1538
2023-05-14T04:04:44.000Z,426.8462
2023-05-14T04:05:45.725Z,427.1538
2023-05-14T04:06:47.455Z,426.6154
2023-05-14T04:07:49.221Z,425.2308
2023-05-14T04:08:50.908Z,425.4615
2023-05-14T04:09:52.662Z,427.0769
2023-05-14T04:10:54.424Z,427.7692
2023-05-14T04:11:56.125Z,428.6154
2023-05-14T04:12:57.876Z,428.3846
2023-05-14T04:13:59.577Z,427.0769
2023-05-14T04:15:01.330Z,425.3846
2023-05-14T04:16:03.060Z,425.3077
2023-05-14T04:17:04.814Z,426.3846
2023-05-14T04:18:06.629Z,428.9231
2023-05-14T04:19:08.322Z,431.0769
2023-05-14T04:20:09.991Z,430.8462
2023-05-14T04:21:11.727Z,431.9231
2023-05-14T04:22:13.465Z,433.9231
2023-05-14T04:23:15.214Z,432.3846
2023-05-14T04:24:16.950Z,431.0000
2023-05-14T04:25:18.667Z,430.6154
2023-05-14T04:26:20.430Z,429.3846
2023-05-14T04:27:22.138Z,429.3077
2023-05-14T04:28:23.895Z,428.3077
2023-05-14T04:29:25.634Z,429.6923
2023-05-14T04:30:27.382Z,428.0000
2023-05-14T04:31:29.130Z,429.4615
2023-05-14T04:32:30.818Z,429.3846
2023-05-14T04:33:32.569Z,429.6154
2023-05-14T04:34:34.296Z,430.3077
2023-05-14T04:35:36.067Z,429.4615
2023-05-14T04:36:37.751Z,428.0769
2023-05-14T04:37:39.472Z,427.2308
2023-05-14T04:38:41.226Z,428.9231
2023-05-14T04:39:42.963Z,428.9231
2023-05-14T04:40:44.698Z,428.0769
2023-05-14T04:41:46.429Z,430.3846
2023-05-14T04:42:48.169Z,431.7692
2023-05-14T04:43:49.892Z,431.1538
2023-05-14T04:44:51.599Z,430.4615
2023-05-14T04:45:53.363Z,428.5385
2023-05-14T04:46:55.096Z,428.0000
2023-05-14T04:47:56.859Z,426.0000
2023-05-14T04:48:58.574Z,425.1538
2023-05-14T04:50:00.396Z,423.6923
2023-05-14T04:51:02.025Z,425.8462
2023-05-14T04:52:03.767Z,426.5385
2023-05-14T04:53:05.508Z,425.3077
2023-05-14T04:54:07.238Z,424.5385
2023-05-14T04:55:08.960Z,425.1538
2023-05-14T04:56:10.696Z,425.3077
2023-05-14T04:57:12.425Z,425.8462
2023-05-14T04:58:14.139Z,426.1538
2023-05-14T04:59:15.872Z,425.0769
2023-05-14T05:00:17.610Z,424.9231
2023-05-14T05:01:19.420Z,425.2308
2023-05-14T05:02:21.092Z,424.3846
2023-05-14T05:03:22.967Z,425.8462
2023-05-14T05:04:24.540Z,424.8462
2023-05-14T05:05:26.288Z,423.2308
2023-05-14T05:06:28.050Z,423.1538
2023-05-14T05:07:29.781Z,425.1538
2023-05-14T05:08:31.501Z,426.3846
2023-05-14T05:09:33.217Z,426.2308
2023-05-14T05:10:34.998Z,426.1538
2023-05-14T05:11:36.706Z,425.6923
2023-05-14T05:12:38.466Z,426.5385
2023-05-14T05:13:40.157Z,425.8462
2023-05-14T05:14:41.889Z,427.1538
2023-05-14T05:15:43.659Z,425.6923
2023-05-14T05:16:45.382Z,423.3846
2023-05-14T05:17:47.180Z,423.7692
2023-05-14T05:18:48.879Z,425.5385
2023-05-14T05:19:50.582Z,425.3846
2023-05-14T05:20:52.297Z,421.9231
2023-05-14T05:21:54.053Z,420.0769
2023-05-14T05:22:55.791Z,420.5385
2023-05-14T05:23:57.514Z,420.9231
2023-05-14T05:24:59.240Z,423.0000
2023-05-14T05:26:00.989Z,421.5385
2023-05-14T05:27:02.742Z,420.6923
2023-05-14T05:28:04.460Z,421.8462
2023-05-14T05:29:06.213Z,423.5385
2023-05-14T05:30:07.917Z,423.8462
2023-05-14T05:31:09.662Z,421.1538
2023-05-14T05:32:11.393Z,422.2308
2023-05-14T05:33:13.131Z,424.4615
2023-05-14T05:34:14.863Z,424.9231
2023-05-14T05:35:16.581Z,423.7692
2023-05-14T05:36:18.320Z,424.4615
2023-05-14T05:37:20.049Z,424.0000
2023-05-14T05:38:21.799Z,422.0000
2023-05-14T05:39:23.546Z,420.4615
2023-05-14T05:40:25.661Z,420.9231
2023-05-14T05:41:26.972Z,422.5385
2023-05-14T05:42:28.721Z,424.0000
2023-05-14T05:43:30.437Z,424.2308
2023-05-14T05:44:32.197Z,422.8462
2023-05-14T05:45:33.922Z,424.4615
2023-05-14T05:46:35.675Z,425.0769
2023-05-14T05:47:37.468Z,424.5385
2023-05-14T05:48:39.109Z,423.8462
2023-05-14T05:49:40.870Z,424.7692
2023-05-14T05:50:42.591Z,423.0769
2023-05-14T05:51:44.326Z,423.1538
2023-05-14T05:52:46.036Z,425.2308
2023-05-14T05:53:47.842Z,425.3077
2023-05-14T05:54:49.524Z,424.7692
2023-05-14T05:55:51.237Z,425.3077
2023-05-14T05:56:52.980Z,425.3846
2023-05-14T05:57:54.714Z,425.1538
2023-05-14T05:58:56.470Z,422.7692
2023-05-14T05:59:58.196Z,421.6154
2023-05-14T06:00:59.913Z,421.4615
2023-05-14T06:02:01.667Z,422.5385
2023-05-14T06:03:03.416Z,424.0769
2023-05-14T06:04:05.115Z,423.5385
2023-05-14T06:05:06.874Z,423.0000
2023-05-14T06:06:08.622Z,423.7692
2023-05-14T06:07:10.292Z,423.0000
2023-05-14T06:08:12.046Z,419.1538
2023-05-14T06:09:13.764Z,419.3077
2023-05-14T06:10:15.537Z,423.1538
2023-05-14T06:11:17.282Z,424.9231
2023-05-14T06:12:18.967Z,423.3846
2023-05-14T06:13:20.707Z,424.9231
2023-05-14T06:14:22.432Z,421.9231
2023-05-14T06:15:24.199Z,424.6923
2023-05-14T06:16:25.931Z,425.0000
2023-05-14T06:17:27.733Z,423.3077
2023-05-14T06:18:29.411Z,423.6154
2023-05-14T06:19:31.097Z,423.1538
2023-05-14T06:20:32.856Z,424.7692
2023-05-14T06:21:34.586Z,422.7692
2023-05-14T06:22:36.329Z,420.1538
2023-05-14T06:23:38.044Z,420.4615
2023-05-14T06:24:39.767Z,419.9231
2023-05-14T06:25:41.487Z,420.3846
2023-05-14T06:26:43.231Z,419.3846
2023-05-14T06:27:44.974Z,419.4615
2023-05-14T06:28:46.697Z,419.2308
2023-05-14T06:29:48.416Z,418.6923
2023-05-14T06:30:50.148Z,419.8462
2023-05-14T06:31:51.900Z,421.3077
2023-05-14T06:32:53.654Z,423.5385
2023-05-14T06:33:55.343Z,423.7692
2023-05-14T06:34:57.094Z,424.2308
2023-05-14T06:35:58.932Z,425.4615
2023-05-14T06:37:00.654Z,426.0000
2023-05-14T06:38:02.366Z,428.3846
2023-05-14T06:39:04.103Z,427.3846
2023-05-14T06:40:05.836Z,425.9231
2023-05-14T06:41:07.580Z,426.0000
2023-05-14T06:42:09.325Z,426.6154
2023-05-14T06:43:11.019Z,424.4615
2023-05-14T06:44:12.751Z,422.3077
2023-05-14T06:45:14.478Z,420.2308
2023-05-14T06:46:16.263Z,420.8462
2023-05-14T06:47:17.989Z,421.1538
2023-05-14T06:48:19.773Z,423.9231
2023-05-14T06:49:21.403Z,427.3846
2023-05-14T06:50:23.290Z,427.7692
2023-05-14T06:51:24.887Z,424.5385
2023-05-14T06:52:26.619Z,425.3846
2023-05-14T06:53:28.370Z,426.2308
2023-05-14T06:54:30.102Z,426.0000
2023-05-14T06:55:31.835Z,425.5385
2023-05-14T06:56:33.572Z,425.4615
2023-05-14T06:57:35.303Z,425.0769
2023-05-14T06:58:37.022Z,426.0769
2023-05-14T06:59:38.732Z,426.5385
2023-05-14T07:00:40.500Z,426.1538
2023-05-14T07:01:42.250Z,429.5385
2023-05-14T07:02:44.011Z,430.2308
2023-05-14T07:03:45.702Z,431.3846
2023-05-14T07:04:47.452Z,429.3846
2023-05-14T07:05:49.134Z,429.1538
2023-05-14T07:06:50.870Z,429.0769
2023-05-14T07:07:52.605Z,425.5385
2023-05-14T07:08:54.366Z,425.5385
2023-05-14T07:09:56.100Z,423.4615
2023-05-14T07:10:57.819Z,422.3077
2023-05-14T07:11:59.538Z,423.2308
2023-05-14T07:13:01.277Z,423.3077
2023-05-14T07:14:02.999Z,426.2308
2023-05-14T07:15:04.759Z,425.4615
2023-05-14T07:16:06.476Z,424.3077
2023-05-14T07:17:08.260Z,423.0769
2023-05-14T07:18:09.934Z,425.8462
2023-05-14T07:19:11.725Z,426.5385
2023-05-14T07:20:13.412Z,428.6923
2023-05-14T07:21:15.128Z,432.2308
2023-05-14T07:22:16.876Z,430.3077
2023-05-14T07:23:19.774Z,429.3077
2023-05-14T07:24:20.316Z,427.6923
2023-05-14T07:25:22.062Z,426.9231
2023-05-14T07:26:23.799Z,428.1538
2023-05-14T07:27:25.531Z,427.3846
2023-05-14T07:28:27.243Z,427.9231
2023-05-14T07:29:28.986Z,428.2308
2023-05-14T07:30:30.718Z,429.8462
2023-05-14T07:31:32.485Z,426.0000
2023-05-14T07:32:34.191Z,422.9231
2023-05-14T07:33:35.923Z,423.7692
2023-05-14T07:34:37.644Z,424.9231
2023-05-14T07:35:39.378Z,425.0769
2023-05-14T07:36:41.083Z,428.0000
2023-05-14T07:37:42.845Z,429.9231
2023-05-14T07:38:44.550Z,429.0769
2023-05-14T07:39:46.293Z,429.9231
2023-05-14T07:40:48.028Z,428.8462
2023-05-14T07:41:49.732Z,430.6154
2023-05-14T07:42:51.472Z,429.7692
2023-05-14T07:43:53.216Z,429.8462
2023-05-14T07:44:54.950Z,430.5385
2023-05-14T07:45:56.688Z,427.1538
2023-05-14T07:46:58.442Z,425.8462
2023-05-14T07:48:00.317Z,424.2308
2023-05-14T07:49:01.856Z,425.3846
2023-05-14T07:50:03.596Z,425.3846
2023-05-14T07:51:05.352Z,426.2308
2023-05-14T07:52:07.067Z,425.8462
2023-05-14T07:53:08.776Z,426.1538
2023-05-14T07:54:10.512Z,427.5385
2023-05-14T07:55:12.247Z,428.0000
2023-05-14T07:56:14.006Z,425.8462
2023-05-14T07:57:15.730Z,421.9231
2023-05-14T07:58:17.435Z,420.4615
2023-05-14T07:59:19.178Z,421.4615
2023-05-14T08:00:20.970Z,422.8462
2023-05-14T08:01:22.657Z,420.0000
2023-05-14T08:02:24.505Z,419.7692
2023-05-14T08:03:26.205Z,420.1538
2023-05-14T08:04:27.895Z,420.6154
2023-05-14T08:05:29.583Z,420.0769
2023-05-14T08:06:31.289Z,423.7692
2023-05-14T08:07:33.038Z,425.6154
2023-05-14T08:08:34.773Z,425.1538
2023-05-14T08:09:36.481Z,423.3077
2023-05-14T08:10:38.235Z,424.0000
2023-05-14T08:11:39.961Z,422.3846
2023-05-14T08:12:41.676Z,421.6923
2023-05-14T08:13:43.434Z,420.0000
2023-05-14T08:14:45.138Z,420.8462
2023-05-14T08:15:46.884Z,419.5385
2023-05-14T08:16:48.670Z,418.9231
2023-05-14T08:17:50.371Z,420.0000
2023-05-14T08:18:52.078Z,421.3077
2023-05-14T08:19:53.773Z,421.5385
2023-05-14T08:20:55.535Z,421.1538
2023-05-14T08:21:57.256Z,418.6154
2023-05-14T08:22:58.996Z,417.8462
2023-05-14T08:24:00.707Z,419.0769
2023-05-14T08:25:02.462Z,419.0769
2023-05-14T08:26:04.200Z,421.3077
2023-05-14T08:27:05.889Z,418.3846
2023-05-14T08:28:07.653Z,418.9231
2023-05-14T08:29:10.765Z,419.0000
2023-05-14T08:30:11.105Z,419.5385
2023-05-14T08:31:12.861Z,420.6154
2023-05-14T08:32:22.766Z,421.8462
2023-05-14T08:33:16.274Z,423.8462
2023-05-14T08:34:18.029Z,422.6923
2023-05-14T08:35:19.763Z,420.2308
2023-05-14T08:36:21.499Z,421.3846
2023-05-14T08:37:23.208Z,420.0769
2023-05-14T08:38:24.927Z,420.0000
2023-05-14T08:39:26.654Z,419.2308
2023-05-14T08:40:28.414Z,419.3846
2023-05-14T08:41:30.136Z,418.4615
2023-05-14T08:42:31.848Z,417.9231
2023-05-14T08:43:33.573Z,419.1538
2023-05-14T08:44:35.353Z,416.6923
2023-05-14T08:45:37.054Z,418.7692
2023-05-14T08:46:38.793Z,418.3846
2023-05-14T08:47:40.547Z,417.8462
2023-05-14T08:48:42.241Z,417.0000
2023-05-14T08:49:43.960Z,419.7692
2023-05-14T08:50:45.709Z,420.0769
2023-05-14T08:51:47.447Z,419.4615
2023-05-14T08:52:49.160Z,419.5385
2023-05-14T08:53:50.875Z,419.0769
2023-05-14T08:54:52.611Z,421.3846
2023-05-14T08:55:54.332Z,420.8462
2023-05-14T08:56:56.079Z,419.3846
2023-05-14T08:57:57.810Z,420.5385
2023-05-14T08:58:59.505Z,421.4615
2023-05-14T09:00:01.290Z,419.4615
2023-05-14T09:01:02.968Z,417.2308
2023-05-14T09:02:04.810Z,418.1538
2023-05-14T09:03:06.487Z,417.3077
2023-05-14T09:04:08.157Z,414.6923
2023-05-14T09:05:09.898Z,415.2308
2023-05-14T09:06:11.598Z,414.7692
2023-05-14T09:07:13.351Z,412.4615
2023-05-14T09:08:15.073Z,414.0000
2023-05-14T09:09:16.819Z,418.0769
2023-05-14T09:10:18.526Z,417.0769
2023-05-14T09:11:20.241Z,414.7692
2023-05-14T09:12:22.011Z,416.0769
2023-05-14T09:13:24.140Z,415.6923
2023-05-14T09:14:25.449Z,415.1538
2023-05-14T09:15:27.161Z,414.7692
2023-05-14T09:16:28.941Z,414.7692
2023-05-14T09:17:30.671Z,415.0769
2023-05-14T09:18:32.397Z,414.7692
2023-05-14T09:19:34.110Z,412.7692
2023-05-14T09:20:35.805Z,414.7692
2023-05-14T09:21:37.518Z,415.3077
2023-05-14T09:22:39.264Z,413.7692
2023-05-14T09:23:41.004Z,412.3846
2023-05-14T09:24:42.730Z,413.0769
2023-05-14T09:25:44.460Z,412.5385
2023-05-14T09:26:46.188Z,412.3077
2023-05-14T09:27:47.913Z,412.5385
2023-05-14T09:28:49.635Z,412.4615
2023-05-14T09:29:51.341Z,413.5385
2023-05-14T09:30:53.082Z,414.7692
2023-05-14T09:31:54.898Z,414.2308
2023-05-14T09:32:56.615Z,413.9231
2023-05-14T09:33:58.292Z,413.4615
2023-05-14T09:34:59.992Z,415.0000
2023-05-14T09:36:01.723Z,414.6154
2023-05-14T09:37:03.475Z,413.6154
2023-05-14T09:38:05.190Z,411.3846
2023-05-14T09:39:06.921Z,409.7692
2023-05-14T09:40:08.637Z,407.6923
2023-05-14T09:41:10.358Z,409.3077
2023-05-14T09:42:12.099Z,410.1538
2023-05-14T09:43:13.820Z,409.1538
2023-05-14T09:44:15.545Z,408.8462
2023-05-14T09:45:17.271Z,411.3077
2023-05-14T09:46:18.990Z,411.3077
2023-05-14T09:47:20.799Z,409.8462
2023-05-14T09:48:22.579Z,409.6154
2023-05-14T09:49:24.180Z,411.7692
2023-05-14T09:50:26.153Z,413.3077
2023-05-14T09:51:27.640Z,415.0000
2023-05-14T09:52:29.360Z,414.1538
2023-05-14T09:53:31.087Z,412.9231
2023-05-14T09:54:32.815Z,412.2308
2023-05-14T09:55:34.519Z,411.2308
2023-05-14T09:56:36.286Z,411.4615
2023-05-14T09:57:38.002Z,411.1538
2023-05-14T09:58:39.709Z,410.4615
2023-05-14T09:59:41.431Z,405.7692
2023-05-14T10:00:43.189Z,406.0769
2023-05-14T10:01:44.983Z,407.2308
2023-05-14T10:02:46.699Z,408.1538
2023-05-14T10:03:48.369Z,407.5385
2023-05-14T10:04:50.325Z,411.6154
2023-05-14T10:05:51.820Z,411.7692
2023-05-14T10:06:53.546Z,410.8462
2023-05-14T10:07:55.289Z,408.3077
2023-05-14T10:08:57.003Z,407.6923
2023-05-14T10:09:59.546Z,405.6923
2023-05-14T10:11:00.472Z,408.8462
2023-05-14T10:12:02.214Z,411.8462
2023-05-14T10:13:03.899Z,410.3846
2023-05-14T10:14:05.639Z,412.5385
2023-05-14T10:15:07.386Z,413.3077
2023-05-14T10:16:09.121Z,410.9231
2023-05-14T10:17:10.950Z,411.4615
2023-05-14T10:18:12.607Z,410.7692
2023-05-14T10:19:14.305Z,411.0000
2023-05-14T10:20:16.054Z,410.2308
2023-05-14T10:21:17.764Z,408.5385
2023-05-14T10:22:19.494Z,409.0769
2023-05-14T10:23:21.226Z,413.1538
2023-05-14T10:24:22.927Z,413.4615
2023-05-14T10:25:24.669Z,412.0769
2023-05-14T10:26:26.431Z,413.2308
2023-05-14T10:27:28.140Z,412.6923
2023-05-14T10:28:29.861Z,412.1538
2023-05-14T10:29:31.571Z,410.3077
2023-05-14T10:30:33.304Z,408.0000
2023-05-14T10:31:35.094Z,406.4615
2023-05-14T10:32:36.829Z,406.5385
2023-05-14T10:33:38.513Z,407.0769
2023-05-14T10:34:40.235Z,406.3077
2023-05-14T10:35:41.943Z,406.2308
2023-05-14T10:36:43.673Z,404.9231
2023-05-14T10:37:45.429Z,405.3077
2023-05-14T10:38:47.159Z,407.6923
2023-05-14T10:39:48.978Z,407.8462
2023-05-14T10:40:52.824Z,409.0000
2023-05-14T10:41:52.418Z,407.7692
2023-05-14T10:42:54.136Z,406.3846
2023-05-14T10:43:55.897Z,406.6923
2023-05-14T10:44:57.623Z,406.2308
2023-05-14T10:45:59.331Z,409.8462
2023-05-14T10:47:01.070Z,409.3846
2023-05-14T10:48:02.788Z,409.7692
2023-05-14T10:49:04.536Z,410.6923
2023-05-14T10:50:06.266Z,405.4615
2023-05-14T10:51:08.043Z,404.6154
2023-05-14T10:52:09.691Z,403.8462
2023-05-14T10:53:11.422Z,406.5385
2023-05-14T10:54:13.168Z,408.0000
2023-05-14T10:55:14.926Z,407.3077
2023-05-14T10:56:16.632Z,406.8462
2023-05-14T10:57:18.370Z,406.7692
2023-05-14T10:58:20.068Z,408.4615
2023-05-14T10:59:21.820Z,408.0769
2023-05-14T11:00:23.746Z,410.5385
2023-05-14T11:01:25.328Z,411.5385
2023-05-14T11:02:27.043Z,410.6923
2023-05-14T11:03:28.765Z,408.5385
2023-05-14T11:04:30.456Z,408.2308
2023-05-14T11:05:32.203Z,410.6923
2023-05-14T11:06:33.930Z,409.1538
2023-05-14T11:07:35.674Z,407.4615
2023-05-14T11:08:37.395Z,408.3846
2023-05-14T11:09:39.106Z,407.5385
2023-05-14T11:10:40.826Z,407.5385
2023-05-14T11:11:42.604Z,410.2308
2023-05-14T11:12:44.323Z,408.9231
2023-05-14T11:13:46.051Z,407.0769
2023-05-14T11:14:47.783Z,402.1538
2023-05-14T11:15:49.503Z,402.6923
2023-05-14T11:16:51.233Z,404.7692
2023-05-14T11:17:52.954Z,402.7692
2023-05-14T11:18:54.739Z,402.4615
2023-05-14T11:19:56.412Z,401.4615
2023-05-14T11:20:58.146Z,402.0769
2023-05-14T11:21:59.850Z,403.4615
2023-05-14T11:23:01.577Z,406.6154
2023-05-14T11:24:03.303Z,409.6154
2023-05-14T11:25:05.052Z,405.6923
2023-05-14T11:26:06.841Z,402.8462
2023-05-14T11:27:08.497Z,401.4615
2023-05-14T11:28:10.248Z,402.1538
2023-05-14T11:29:11.961Z,402.1538
2023-05-14T11:30:13.689Z,402.6154
2023-05-14T11:31:15.444Z,403.3077
2023-05-14T11:32:17.169Z,403.0000
2023-05-14T11:33:18.954Z,401.7692
2023-05-14T11:34:20.627Z,401.1538
2023-05-14T11:35:22.355Z,404.2308
2023-05-14T11:36:24.061Z,404.9231
2023-05-14T11:37:25.793Z,404.3077
2023-05-14T11:38:27.527Z,403.0000
2023-05-14T11:39:29.257Z,404.0000
2023-05-14T11:40:31.002Z,404.7692
2023-05-14T11:41:32.705Z,404.4615
2023-05-14T11:42:34.448Z,402.6923
2023-05-14T11:43:36.166Z,400.3077
2023-05-14T11:44:37.921Z,401.8462
2023-05-14T11:45:39.693Z,404.2308
2023-05-14T11:46:41.413Z,402.1538
2023-05-14T11:47:43.116Z,402.2308
2023-05-14T11:48:44.809Z,401.0769
2023-05-14T11:49:46.556Z,402.1538
2023-05-14T11:50:48.284Z,404.1538
2023-05-14T11:51:50.013Z,403.2308
2023-05-14T11:52:51.723Z,401.4615
2023-05-14T11:53:53.445Z,401.8462
2023-05-14T11:54:55.193Z,402.5385
2023-05-14T11:55:56.923Z,402.9231
2023-05-14T11:56:58.625Z,405.2308
2023-05-14T11:58:00.365Z,405.0769
2023-05-14T11:59:02.091Z,407.7692
2023-05-14T12:00:03.820Z,408.3846
2023-05-14T12:01:05.582Z,406.0769
2023-05-14T12:02:07.337Z,407.5385
2023-05-14T12:03:09.065Z,406.6154
2023-05-14T12:04:10.843Z,405.7692
2023-05-14T12:05:12.570Z,405.4615
2023-05-14T12:06:14.213Z,405.4615
2023-05-14T12:07:15.952Z,404.0769
2023-05-14T12:08:17.660Z,404.2308
2023-05-14T12:09:19.380Z,402.2308
2023-05-14T12:10:21.121Z,400.4615
2023-05-14T12:11:22.863Z,401.1538